createdAt,value
2023-04-14T00:00:36.748Z,11.00
2023-04-14T00:03:05.137Z,9.00
2023-04-14T00:05:33.290Z,11.00
2023-04-14T00:08:01.934Z,10.00
2023-04-14T00:10:30.144Z,7.50
2023-04-14T00:12:58.101Z,10.00
2023-04-14T00:15:27.510Z,7.50
2023-04-14T00:17:55.396Z,7.00
2023-04-14T00:20:23.751Z,10.00
2023-04-14T00:22:51.825Z,6.50
2023-04-14T00:25:19.898Z,7.50
2023-04-14T00:27:47.852Z,8.00
2023-04-14T00:30:16.235Z,7.25
2023-04-14T00:32:46.033Z,6.50
2023-04-14T00:35:13.996Z,6.75
2023-04-14T00:37:41.918Z,6.75
2023-04-14T00:40:10.994Z,7.75
2023-04-14T00:42:44.136Z,8.75
2023-04-14T00:45:12.467Z,6.00
2023-04-14T00:47:40.716Z,7.50
2023-04-14T00:50:12.101Z,6.25
2023-04-14T00:52:39.991Z,6.50
2023-04-14T00:55:09.226Z,6.00
2023-04-14T00:57:37.120Z,6.50
2023-04-14T01:00:05.986Z,6.00
2023-04-14T01:02:34.117Z,7.50
2023-04-14T01:05:02.242Z,7.75
2023-04-14T01:07:31.797Z,6.00
2023-04-14T01:10:00.984Z,6.75
2023-04-14T01:12:36.538Z,6.75
2023-04-14T01:15:10.431Z,7.00
2023-04-14T01:17:40.682Z,5.75
2023-04-14T01:20:11.397Z,6.25
2023-04-14T01:22:49.032Z,5.00
2023-04-14T01:25:36.481Z,6.50
2023-04-14T01:28:14.833Z,5.75
2023-04-14T01:30:52.422Z,5.75
2023-04-14T01:33:22.273Z,5.00
2023-04-14T01:35:52.759Z,5.00
2023-04-14T01:38:23.178Z,4.00
2023-04-14T01:40:52.331Z,4.25
2023-04-14T01:43:22.531Z,5.00
2023-04-14T01:45:52.539Z,4.00
2023-04-14T01:48:21.795Z,5.00
2023-04-14T01:50:50.008Z,4.00
2023-04-14T01:53:18.414Z,4.00
2023-04-14T01:55:47.361Z,5.00
2023-04-14T01:58:15.565Z,5.00
2023-04-14T02:00:43.745Z,5.00
2023-04-14T02:03:12.003Z,4.75
2023-04-14T02:05:41.658Z,4.00
2023-04-14T02:08:11.644Z,4.00
2023-04-14T02:10:41.652Z,5.00
2023-04-14T02:13:10.514Z,4.75
2023-04-14T02:15:38.420Z,4.75
2023-04-14T02:18:07.411Z,5.75
2023-04-14T02:20:35.580Z,4.00
2023-04-14T02:23:04.882Z,3.00
2023-04-14T02:25:34.241Z,5.00
2023-04-14T02:28:03.842Z,4.00
2023-04-14T02:30:33.020Z,3.00
2023-04-14T02:33:03.097Z,4.00
2023-04-14T02:35:31.878Z,3.75
2023-04-14T02:38:04.073Z,4.00
2023-04-14T02:40:33.647Z,4.00
2023-04-14T02:43:02.448Z,3.00
2023-04-14T02:45:32.981Z,4.00
2023-04-14T02:48:03.849Z,4.75
2023-04-14T02:50:32.086Z,4.00
2023-04-14T02:53:00.032Z,4.00
2023-04-14T02:55:28.010Z,4.25
2023-04-14T02:57:57.359Z,4.75
2023-04-14T03:00:25.836Z,4.25
2023-04-14T03:02:54.123Z,4.00
2023-04-14T03:05:22.403Z,4.75
2023-04-14T03:07:50.411Z,4.00
2023-04-14T03:10:18.632Z,5.00
2023-04-14T03:12:46.814Z,4.00
2023-04-14T03:15:16.826Z,3.50
2023-04-14T03:17:45.230Z,4.00
2023-04-14T03:20:13.725Z,4.00
2023-04-14T03:22:41.935Z,3.25
2023-04-14T03:25:12.458Z,3.00
2023-04-14T03:27:40.493Z,4.00
2023-04-14T03:30:11.374Z,3.00
2023-04-14T03:32:42.320Z,4.25
2023-04-14T03:35:12.731Z,4.00
2023-04-14T03:37:41.405Z,3.00
2023-04-14T03:40:11.242Z,3.75
2023-04-14T03:42:39.909Z,4.50
2023-04-14T03:45:10.805Z,3.75
2023-04-14T03:47:40.185Z,3.00
2023-04-14T03:50:10.340Z,4.00
2023-04-14T03:52:39.347Z,3.25
2023-04-14T03:55:08.002Z,3.25
2023-04-14T03:57:35.959Z,3.50
2023-04-14T04:00:05.244Z,4.00
2023-04-14T04:02:33.398Z,4.00
2023-04-14T04:05:02.781Z,3.00
2023-04-14T04:07:30.833Z,3.00
2023-04-14T04:09:59.033Z,4.00
2023-04-14T04:12:26.915Z,3.50
2023-04-14T04:14:54.804Z,3.00
2023-04-14T04:17:24.373Z,3.50
2023-04-14T04:19:52.728Z,3.00
2023-04-14T04:22:22.212Z,5.00
2023-04-14T04:24:50.142Z,3.75
2023-04-14T04:27:27.717Z,3.75
2023-04-14T04:29:56.796Z,5.00
2023-04-14T04:32:25.173Z,6.00
2023-04-14T04:34:53.228Z,7.00
2023-04-14T04:37:22.649Z,7.50
2023-04-14T04:39:50.893Z,9.00
2023-04-14T04:42:18.855Z,9.00
2023-04-14T04:44:46.737Z,9.50
2023-04-14T04:47:14.676Z,10.25
2023-04-14T04:49:42.548Z,10.75
2023-04-14T04:52:10.736Z,10.50
2023-04-14T04:54:40.063Z,10.75
2023-04-14T04:57:08.001Z,12.50
2023-04-14T04:59:37.394Z,13.00
2023-04-14T05:02:06.431Z,14.00
2023-04-14T05:04:34.470Z,12.75
2023-04-14T05:07:03.347Z,15.75
2023-04-14T05:09:31.261Z,13.00
2023-04-14T05:12:00.860Z,15.00
2023-04-14T05:14:28.846Z,16.50
2023-04-14T05:16:57.041Z,14.00
2023-04-14T05:19:24.979Z,14.25
2023-04-14T05:21:53.227Z,15.50
2023-04-14T05:24:21.320Z,15.00
2023-04-14T05:27:09.534Z,16.00
2023-04-14T05:29:39.844Z,14.25
2023-04-14T05:32:08.032Z,17.00
2023-04-14T05:34:35.915Z,16.00
2023-04-14T05:37:03.847Z,15.00
2023-04-14T05:39:31.718Z,14.75
2023-04-14T05:42:01.239Z,13.75
2023-04-14T05:44:29.164Z,17.00
2023-04-14T05:46:58.470Z,14.75
2023-04-14T05:49:26.432Z,13.75
2023-04-14T05:51:56.136Z,15.00
2023-04-14T05:54:24.061Z,17.25
2023-04-14T05:56:51.983Z,16.00
2023-04-14T05:59:19.883Z,14.50
2023-04-14T06:01:48.138Z,16.75
2023-04-14T06:04:17.727Z,13.75
2023-04-14T06:06:45.785Z,15.25
2023-04-14T06:09:13.723Z,13.75
2023-04-14T06:11:41.915Z,13.75
2023-04-14T06:14:09.993Z,13.00
2023-04-14T06:16:37.930Z,13.50
2023-04-14T06:19:05.930Z,13.25
2023-04-14T06:21:35.584Z,12.50
2023-04-14T06:24:03.452Z,13.75
2023-04-14T06:26:31.360Z,12.75
2023-04-14T06:29:00.720Z,12.50
2023-04-14T06:31:29.302Z,11.00
2023-04-14T06:33:57.245Z,12.75
2023-04-14T06:36:26.073Z,12.75
2023-04-14T06:38:55.362Z,11.75
2023-04-14T06:41:23.588Z,10.25
2023-04-14T06:43:51.542Z,11.50
2023-04-14T06:46:19.511Z,10.00
2023-04-14T06:48:47.494Z,11.50
2023-04-14T06:51:15.968Z,12.75
2023-04-14T06:53:43.865Z,9.75
2023-04-14T06:56:13.197Z,10.75
2023-04-14T06:58:41.245Z,10.00
2023-04-14T07:01:09.186Z,11.50
2023-04-14T07:03:37.646Z,10.50
2023-04-14T07:06:06.861Z,10.00
2023-04-14T07:08:35.424Z,8.00
2023-04-14T07:11:04.246Z,9.00
2023-04-14T07:13:33.764Z,10.25
2023-04-14T07:16:02.196Z,11.00
2023-04-14T07:18:30.234Z,9.00
2023-04-14T07:20:58.573Z,9.00
2023-04-14T07:23:26.726Z,9.50
2023-04-14T07:25:55.021Z,9.00
2023-04-14T07:28:23.273Z,9.00
2023-04-14T07:30:53.160Z,8.75
2023-04-14T07:33:22.372Z,8.25
2023-04-14T07:36:01.397Z,9.25
2023-04-14T07:38:31.161Z,7.25
2023-04-14T07:40:59.065Z,7.00
2023-04-14T07:43:27.319Z,7.25
2023-04-14T07:45:56.939Z,7.25
2023-04-14T07:48:24.844Z,7.00
2023-04-14T07:50:53.110Z,8.50
2023-04-14T07:53:21.073Z,7.00
2023-04-14T07:55:49.150Z,8.00
2023-04-14T07:58:17.118Z,9.00
2023-04-14T08:00:45.530Z,7.50
2023-04-14T08:03:14.918Z,7.75
2023-04-14T08:05:43.865Z,6.00
2023-04-14T08:08:12.403Z,7.75
2023-04-14T08:10:41.547Z,7.25
2023-04-14T08:13:09.458Z,7.50
2023-04-14T08:15:37.416Z,7.00
2023-04-14T08:18:06.005Z,7.50
2023-04-14T08:20:35.644Z,7.00
2023-04-14T08:23:03.642Z,7.25
2023-04-14T08:25:31.597Z,7.75
2023-04-14T08:27:59.480Z,6.00
2023-04-14T08:30:27.760Z,4.75
2023-04-14T08:32:56.878Z,6.25
2023-04-14T08:35:39.002Z,7.00
2023-04-14T08:38:11.315Z,7.75
2023-04-14T08:40:40.301Z,7.75
2023-04-14T08:43:08.194Z,6.25
2023-04-14T08:45:36.531Z,6.00
2023-04-14T08:48:05.103Z,6.00
2023-04-14T08:50:34.716Z,7.00
2023-04-14T08:53:04.049Z,6.00
2023-04-14T08:55:33.481Z,5.25
2023-04-14T08:58:02.450Z,6.00
2023-04-14T09:00:31.088Z,4.75
2023-04-14T09:02:59.153Z,5.50
2023-04-14T09:05:27.234Z,5.00
2023-04-14T09:07:55.463Z,5.00
2023-04-14T09:10:23.876Z,6.00
2023-04-14T09:12:53.556Z,5.25
2023-04-14T09:15:21.763Z,6.00
2023-04-14T09:17:49.897Z,6.00
2023-04-14T09:20:34.487Z,4.75
2023-04-14T09:23:06.090Z,5.00
2023-04-14T09:25:34.854Z,4.50
2023-04-14T09:28:04.162Z,5.75
2023-04-14T09:30:32.604Z,5.00
2023-04-14T09:33:00.895Z,4.50
2023-04-14T09:35:44.215Z,5.00
2023-04-14T09:38:12.207Z,6.00
2023-04-14T09:40:40.416Z,6.25
2023-04-14T09:43:10.664Z,5.00
2023-04-14T09:45:43.274Z,6.00
2023-04-14T09:48:13.007Z,4.50
2023-04-14T09:51:00.550Z,6.00
2023-04-14T09:53:29.735Z,4.25
2023-04-14T09:55:57.736Z,5.00
2023-04-14T09:58:29.967Z,5.00
2023-04-14T10:00:59.471Z,5.25
2023-04-14T10:03:40.508Z,5.25
2023-04-14T10:06:09.696Z,6.25
2023-04-14T10:08:41.158Z,4.00
2023-04-14T10:11:16.863Z,4.00
2023-04-14T10:13:46.350Z,3.75
2023-04-14T10:16:14.583Z,3.25
2023-04-14T10:18:42.638Z,4.50
2023-04-14T10:21:10.885Z,4.00
2023-04-14T10:23:39.438Z,4.00
2023-04-14T10:26:07.507Z,4.00
2023-04-14T10:28:36.079Z,5.00
2023-04-14T10:31:07.142Z,5.00
2023-04-14T10:33:37.971Z,4.00
2023-04-14T10:36:06.155Z,3.25
2023-04-14T10:38:43.979Z,4.25
2023-04-14T10:41:12.503Z,4.25
2023-04-14T10:43:40.669Z,5.00
2023-04-14T10:46:11.316Z,4.00
2023-04-14T10:48:40.300Z,5.00
2023-04-14T10:51:09.705Z,5.00
2023-04-14T10:53:39.078Z,5.00
2023-04-14T10:56:07.144Z,4.00
2023-04-14T10:58:35.890Z,5.00
2023-04-14T11:01:24.119Z,4.25
2023-04-14T11:03:52.303Z,4.00
2023-04-14T11:06:52.340Z,4.00
2023-04-14T11:09:27.407Z,3.75
2023-04-14T11:11:56.543Z,4.00
2023-04-14T11:14:28.348Z,4.00
2023-04-14T11:17:04.277Z,3.00
2023-04-14T11:19:32.768Z,3.00
2023-04-14T11:22:00.928Z,5.00
2023-04-14T11:24:28.854Z,3.00
2023-04-14T11:26:56.934Z,3.75
2023-04-14T11:29:24.814Z,4.25
2023-04-14T11:32:05.609Z,4.00
2023-04-14T11:34:34.333Z,4.50
2023-04-14T11:37:05.912Z,3.50
2023-04-14T11:39:35.584Z,3.00
2023-04-14T11:42:04.346Z,4.00
2023-04-14T11:44:32.334Z,3.00
2023-04-14T11:47:00.251Z,3.00
2023-04-14T11:49:36.094Z,3.00
2023-04-14T11:52:10.047Z,2.75
2023-04-14T11:54:39.020Z,3.25
2023-04-14T11:57:11.233Z,3.25
2023-04-14T11:59:43.536Z,4.00
2023-04-14T12:02:16.562Z,3.00
2023-04-14T12:04:46.810Z,4.00
2023-04-14T12:07:17.000Z,3.00
2023-04-14T12:09:46.773Z,3.00
2023-04-14T12:15:03.045Z,3.00
2023-04-14T12:17:31.356Z,2.75
2023-04-14T12:20:00.971Z,2.00
2023-04-14T12:22:29.760Z,3.75
2023-04-14T12:24:58.040Z,3.00
2023-04-14T12:27:26.610Z,3.00
2023-04-14T12:29:54.904Z,3.00
2023-04-14T12:32:23.213Z,4.00
2023-04-14T12:34:55.543Z,3.25
2023-04-14T12:37:27.439Z,3.75
2023-04-14T12:39:58.193Z,3.00
2023-04-14T12:42:26.155Z,3.00
2023-04-14T12:44:58.188Z,3.00
2023-04-14T12:47:29.975Z,3.00
2023-04-14T12:49:58.575Z,2.50
2023-04-14T12:52:38.266Z,3.00
2023-04-14T12:55:07.275Z,2.25
2023-04-14T12:57:35.290Z,4.00
2023-04-14T13:00:05.025Z,3.00
2023-04-14T13:02:33.515Z,4.25
2023-04-14T13:05:01.534Z,3.00
2023-04-14T13:07:29.745Z,2.00
2023-04-14T13:09:59.057Z,3.00
2023-04-14T13:12:27.139Z,2.00
2023-04-14T13:14:55.089Z,2.00
2023-04-14T13:17:23.154Z,3.00
2023-04-14T13:19:52.923Z,3.00
2023-04-14T13:22:20.912Z,3.00
2023-04-14T13:24:49.940Z,3.00
2023-04-14T13:27:19.571Z,2.25
2023-04-14T13:29:47.769Z,2.00
2023-04-14T13:32:15.791Z,3.00
2023-04-14T13:34:44.189Z,3.50
2023-04-14T13:37:12.080Z,2.00
2023-04-14T13:39:40.133Z,3.00
2023-04-14T13:42:08.344Z,2.00
2023-04-14T13:44:37.790Z,3.00
2023-04-14T13:47:05.822Z,3.00
2023-04-14T13:49:33.687Z,2.00
2023-04-14T13:52:01.856Z,2.50
2023-04-14T13:54:29.784Z,2.25
2023-04-14T13:56:57.782Z,2.75
2023-04-14T13:59:25.799Z,3.00
2023-04-14T14:01:55.528Z,2.00
2023-04-14T14:04:24.032Z,2.00
2023-04-14T14:06:52.130Z,2.00
2023-04-14T14:09:20.095Z,2.50
2023-04-14T14:11:48.316Z,3.00
2023-04-14T14:14:16.195Z,3.75
2023-04-14T14:16:44.170Z,2.50
2023-04-14T14:19:17.133Z,2.75
2023-04-14T14:21:45.680Z,2.25
2023-04-14T14:24:14.059Z,2.00
2023-04-14T14:26:41.949Z,3.00
2023-04-14T14:29:09.854Z,2.00
2023-04-14T14:31:38.239Z,2.00
2023-04-14T14:34:06.176Z,2.00
2023-04-14T14:36:35.485Z,2.00
2023-04-14T14:39:03.409Z,2.00
2023-04-14T14:41:31.596Z,2.00
2023-04-14T14:44:00.848Z,2.50
2023-04-14T14:46:29.691Z,2.00
2023-04-14T14:48:57.918Z,2.25
2023-04-14T14:51:27.689Z,2.00
2023-04-14T14:54:08.842Z,2.00
2023-04-14T14:56:37.926Z,2.00
2023-04-14T14:59:05.834Z,3.00
2023-04-14T15:01:34.118Z,2.00
2023-04-14T15:04:02.593Z,2.00
2023-04-14T15:06:31.022Z,2.00
2023-04-14T15:09:00.469Z,3.00
2023-04-14T15:11:29.585Z,3.00
2023-04-14T15:13:58.466Z,3.00
2023-04-14T15:16:26.463Z,2.00
2023-04-14T15:18:54.421Z,6.00
2023-04-14T15:21:22.338Z,5.00
2023-04-14T15:23:50.270Z,6.00
2023-04-14T15:26:19.836Z,6.00
2023-04-14T15:28:48.135Z,7.25
2023-04-14T15:31:16.524Z,5.00
2023-04-14T15:33:45.594Z,7.25
2023-04-14T15:36:13.488Z,6.00
2023-04-14T15:38:42.353Z,3.00
2023-04-14T15:41:10.554Z,6.00
2023-04-14T15:43:39.923Z,7.50
2023-04-14T15:46:07.907Z,4.00
2023-04-14T15:48:36.185Z,4.75
2023-04-14T15:51:04.956Z,5.00
2023-04-14T15:53:32.972Z,3.25
2023-04-14T15:56:01.102Z,5.25
2023-04-14T15:58:29.086Z,3.50
2023-04-14T16:00:58.792Z,5.00
2023-04-14T16:03:27.046Z,4.25
2023-04-14T16:06:02.401Z,5.00
2023-04-14T16:08:30.749Z,4.25
2023-04-14T16:10:58.678Z,4.00
2023-04-14T16:13:27.405Z,2.75
2023-04-14T16:15:55.445Z,3.75
2023-04-14T16:18:24.740Z,4.50
2023-04-14T16:20:53.449Z,4.75
2023-04-14T16:23:22.022Z,3.25
2023-04-14T16:25:50.565Z,3.00
2023-04-14T16:28:18.628Z,4.50
2023-04-14T16:30:46.852Z,3.50
2023-04-14T16:33:14.763Z,4.75
2023-04-14T16:35:44.049Z,2.75
2023-04-14T16:38:12.271Z,4.00
2023-04-14T16:40:40.586Z,5.00
2023-04-14T16:43:09.559Z,4.00
2023-04-14T16:45:37.562Z,2.00
2023-04-14T16:48:05.902Z,3.00
2023-04-14T16:50:35.039Z,3.00
2023-04-14T16:53:04.940Z,3.00
2023-04-14T16:55:33.697Z,3.00
2023-04-14T16:58:01.729Z,4.00
2023-04-14T17:00:30.543Z,4.50
2023-04-14T17:02:58.580Z,3.00
2023-04-14T17:05:27.222Z,4.00
2023-04-14T17:07:55.186Z,3.25
2023-04-14T17:10:26.305Z,3.50
2023-04-14T17:12:54.410Z,3.75
2023-04-14T17:15:22.558Z,3.25
2023-04-14T17:17:50.486Z,3.00
2023-04-14T17:20:19.107Z,2.00
2023-04-14T17:22:47.097Z,2.00
2023-04-14T17:25:15.570Z,3.00
2023-04-14T17:27:45.704Z,1.75
2023-04-14T17:30:14.582Z,2.00
2023-04-14T17:32:42.819Z,2.00
2023-04-14T17:35:11.438Z,2.50
2023-04-14T17:37:39.361Z,3.00
2023-04-14T17:40:10.093Z,2.25
2023-04-14T17:42:38.737Z,4.00
2023-04-14T17:45:10.123Z,3.00
2023-04-14T17:47:39.976Z,3.00
2023-04-14T17:50:10.171Z,2.50
2023-04-14T17:52:38.116Z,2.00
2023-04-14T17:55:08.815Z,3.00
2023-04-14T17:57:36.730Z,3.00
2023-04-14T18:00:05.966Z,2.50
2023-04-14T18:02:38.424Z,2.50
2023-04-14T18:05:07.197Z,2.00
2023-04-14T18:07:36.330Z,3.00
2023-04-14T18:10:04.753Z,4.00
2023-04-14T18:12:33.321Z,2.25
2023-04-14T18:15:01.867Z,1.75
2023-04-14T18:17:30.173Z,2.00
2023-04-14T18:19:59.639Z,2.00
2023-04-14T18:22:27.558Z,2.00
2023-04-14T18:24:55.575Z,2.00
2023-04-14T18:29:54.662Z,2.50
2023-04-14T18:32:25.291Z,2.00
2023-04-14T18:34:53.369Z,2.75
2023-04-14T18:37:22.942Z,2.00
2023-04-14T18:39:51.154Z,3.00
2023-04-14T18:42:19.102Z,2.00
2023-04-14T18:44:46.961Z,2.75
2023-04-14T18:47:15.891Z,2.00
2023-04-14T18:49:44.122Z,3.00
2023-04-14T18:52:12.066Z,3.25
2023-04-14T18:54:41.361Z,2.25
2023-04-14T18:57:09.429Z,3.00
2023-04-14T18:59:37.355Z,2.00
2023-04-14T19:02:06.518Z,3.00
2023-04-14T19:04:34.618Z,2.50
2023-04-14T19:07:02.656Z,2.00
2023-04-14T19:09:30.621Z,2.75
2023-04-14T19:12:00.183Z,2.00
2023-04-14T19:14:28.385Z,3.00
2023-04-14T19:16:56.352Z,3.00
2023-04-14T19:19:24.859Z,3.00
2023-04-14T19:21:53.125Z,2.75
2023-04-14T19:24:21.112Z,4.00
2023-04-14T19:26:49.033Z,2.50
2023-04-14T19:29:18.338Z,3.00
2023-04-14T19:31:46.718Z,2.00
2023-04-14T19:34:14.653Z,2.75
2023-04-14T19:36:43.605Z,4.50
2023-04-14T19:39:11.501Z,3.00
2023-04-14T19:41:39.806Z,4.00
2023-04-14T19:44:08.453Z,3.00
2023-04-14T19:46:38.072Z,3.00
2023-04-14T19:49:07.252Z,3.00
2023-04-14T19:51:35.424Z,5.00
2023-04-14T19:54:05.293Z,3.00
2023-04-14T19:56:33.250Z,3.50
2023-04-14T19:59:01.310Z,3.00
2023-04-14T20:01:30.016Z,3.25
2023-04-14T20:04:05.671Z,4.00
2023-04-14T20:06:40.223Z,4.00
2023-04-14T20:09:08.182Z,3.00
2023-04-14T20:11:36.073Z,3.00
2023-04-14T20:14:04.040Z,3.00
2023-04-14T20:16:32.651Z,3.50
2023-04-14T20:19:02.309Z,6.00
2023-04-14T20:21:30.737Z,3.00
2023-04-14T20:23:59.358Z,3.00
2023-04-14T20:26:27.495Z,4.00
2023-04-14T20:28:56.086Z,4.00
2023-04-14T20:31:25.540Z,4.00
2023-04-14T20:33:53.556Z,3.00
2023-04-14T20:36:23.454Z,4.50
2023-04-14T20:38:51.615Z,4.00
2023-04-14T20:41:19.503Z,5.00
2023-04-14T20:43:47.462Z,4.00
2023-04-14T20:46:15.679Z,3.75
2023-04-14T20:48:43.705Z,5.75
2023-04-14T20:51:12.232Z,6.00
2023-04-14T20:53:41.493Z,5.00
2023-04-14T20:56:09.384Z,4.25
2023-04-14T20:58:38.278Z,4.00
2023-04-14T21:01:06.619Z,4.50
2023-04-14T21:03:34.889Z,4.00
2023-04-14T21:06:02.989Z,4.25
2023-04-14T21:08:30.898Z,4.00
2023-04-14T21:11:14.325Z,5.00
2023-04-14T21:15:31.078Z,5.25
2023-04-14T21:16:32.334Z,4.50
2023-04-14T21:19:02.280Z,4.00
2023-04-14T21:21:31.683Z,5.50
2023-04-14T21:23:59.716Z,4.00
2023-04-14T21:26:29.439Z,4.75
2023-04-14T21:28:57.701Z,5.00
2023-04-14T21:31:25.890Z,4.75
2023-04-14T21:33:53.905Z,5.00
2023-04-14T21:36:21.833Z,6.00
2023-04-14T21:38:49.794Z,6.75
2023-04-14T21:41:17.700Z,5.00
2023-04-14T21:43:48.408Z,6.00
2023-04-14T21:46:16.346Z,5.00
2023-04-14T21:48:44.318Z,5.00
2023-04-14T21:51:12.761Z,5.25
2023-04-14T21:53:40.742Z,6.75
2023-04-14T21:56:11.026Z,6.50
2023-04-14T21:58:40.200Z,5.75
2023-04-14T22:01:10.722Z,6.00
2023-04-14T22:03:41.316Z,5.00
2023-04-14T22:06:11.242Z,7.00
2023-04-14T22:08:39.534Z,5.25
2023-04-14T22:11:07.929Z,6.50
2023-04-14T22:13:35.891Z,5.00
2023-04-14T22:16:03.801Z,5.25
2023-04-14T22:18:33.105Z,6.25
2023-04-14T22:21:01.550Z,7.00
2023-04-14T22:23:29.431Z,5.00
2023-04-14T22:25:57.436Z,6.50
2023-04-14T22:28:25.355Z,6.00
2023-04-14T22:30:53.558Z,6.75
2023-04-14T22:33:21.541Z,7.00
2023-04-14T22:35:50.821Z,6.50
2023-04-14T22:38:18.698Z,6.00
2023-04-14T22:40:46.954Z,6.00
2023-04-14T22:43:15.496Z,7.00
2023-04-14T22:45:43.429Z,6.75
2023-04-14T22:48:11.600Z,8.00
2023-04-14T22:50:39.932Z,6.75
2023-04-14T22:53:09.334Z,7.00
2023-04-14T22:55:37.349Z,7.50
2023-04-14T22:58:05.298Z,6.00
2023-04-14T23:00:33.517Z,6.75
2023-04-14T23:03:01.673Z,7.00
2023-04-14T23:05:30.180Z,6.00
2023-04-14T23:07:58.096Z,7.00
2023-04-14T23:10:27.746Z,5.00
2023-04-14T23:12:55.648Z,7.25
2023-04-14T23:15:23.550Z,7.00
2023-04-14T23:17:51.668Z,5.50
2023-04-14T23:20:19.674Z,7.00
2023-04-14T23:22:47.748Z,7.75
2023-04-14T23:25:15.751Z,7.00
2023-04-14T23:27:45.051Z,8.25
2023-04-14T23:30:13.362Z,6.75
2023-04-14T23:32:41.290Z,6.75
2023-04-14T23:35:10.331Z,8.00
2023-04-14T23:37:38.896Z,7.00
2023-04-14T23:40:08.383Z,6.00
2023-04-14T23:42:36.449Z,7.50
2023-04-14T23:45:09.391Z,7.00
2023-04-14T23:47:37.603Z,7.00
2023-04-14T23:50:06.513Z,7.25
2023-04-14T23:52:35.901Z,7.00
2023-04-14T23:55:03.866Z,6.50
2023-04-14T23:57:31.751Z,7.50
